Flight Track Log - Related Links

Times and Time Zones

All times are in EDT time to prevent confusion due to time zone crossing. See the SKW6335 flight status page for this flight to view local times or setup timezone preferences in your user account.

Time Position Orientation Groundspeed Altitude Reporting Facility
EDT Latitude Longitude Course Direction KTS MPH feet Rate Location/Type
Sun 06:11:24 PM 33.9333 -118.4333 139° Southeast 153 176 1,700  Level Southern California TRACON
Sun 06:12:30 PM 33.8833 -118.4667 209° Southwest 190 219 3,200 1,314 Climbing Southern California TRACON
Sun 06:13:09 PM 33.8522 -118.4631 174° South 190 219 4,000 1,307 Climbing Los Angeles Center
Sun 06:14:00 PM 33.7529 -118.2140 140° Southeast  Level Estimated
Sun 06:14:11 PM 33.7958 -118.4656 182° South 201 231 5,400  Level Los Angeles Center
Sun 06:15:00 PM 33.6897 -118.1495 139° Southeast  Level Estimated
Sun 06:15:13 PM 33.7403 -118.4625 177° South 206 237 6,800  Level Los Angeles Center
Sun 06:16:00 PM 33.6266 -118.0847 139° Southeast  Level FlightAware Approximate
Sun 06:16:15 PM 33.6842 -118.4114 143° Southeast 213 245 8,500  Level Los Angeles Center
Sun 06:17:17 PM 33.6528 -118.3461 120° Southeast 225 259 9,000 242 Climbing Los Angeles Center
Sun 06:18:19 PM 33.6147 -118.2747 123° Southeast 243 280 9,000  Level Los Angeles Center
Sun 06:19:21 PM 33.5753 -118.1997 122° Southeast 257 296 9,000  Level Los Angeles Center
Sun 06:20:23 PM 33.5369 -118.1242 121° Southeast 264 304 9,000  Level Los Angeles Center
Sun 06:21:25 PM 33.4906 -118.0319 121° Southeast 269 310 9,000  Level Los Angeles Center
Sun 06:22:27 PM 33.4525 -117.9558 121° Southeast 268 308 9,000 -48 Level Los Angeles Center
Sun 06:23:29 PM 33.4142 -117.8794 121° Southeast 268 308 8,900 -48 Descending Los Angeles Center
Sun 06:24:32 PM 33.3764 -117.8019 120° Southeast 269 310 8,900 48 Level Los Angeles Center
Sun 06:25:34 PM 33.3389 -117.7269 121° Southeast 266 306 9,000 48 Climbing Los Angeles Center
Sun 06:26:36 PM 33.2878 -117.6419 126° Southeast 262 302 9,000 -53 Level Los Angeles Center
Sun 06:27:28 PM 33.2500 -117.5833 128° Southeast 264 304 8,900  Descending Southern California TRACON
Sun 06:28:29 PM 33.1833 -117.5333 148° Southeast 265 305 9,000 50 Climbing Southern California TRACON
Sun 06:29:29 PM 33.1167 -117.4833 148° Southeast 266 306 9,000  Level Southern California TRACON
Sun 06:30:29 PM 33.0500 -117.4333 148° Southeast 265 305 9,000  Level Southern California TRACON
Sun 06:30:44 PM 33.0517 -117.4333 360° North 267 307 9,000 -390 Level Los Angeles Center
Sun 06:31:46 PM 32.9892 -117.3850 147° Southeast 266 306 8,500 -571 Descending Los Angeles Center
Sun 06:32:29 PM 32.9333 -117.3333 142° Southeast 271 312 8,000 -750 Descending Southern California TRACON
Sun 06:33:30 PM 32.8833 -117.2667 132° Southeast 268 308 7,200 -496 Descending Southern California TRACON
Sun 06:34:30 PM 32.8500 -117.1833 115° Southeast 267 307 7,000 -220 Descending Southern California TRACON
Sun 06:34:52 PM 32.8436 -117.1642 112° Southeast 265 305 6,900 -900 Descending Los Angeles Center
Sun 06:35:30 PM 32.8167 -117.1167 124° Southeast 261 300 6,100 -1,102 Descending Southern California TRACON
Sun 06:36:30 PM 32.7833 -117.0333 115° Southeast 251 289 5,100 -950 Descending Southern California TRACON
Sun 06:37:30 PM 32.7500 -116.9833 128° Southeast 215 247 4,200 -550 Descending Southern California TRACON
Sun 06:38:30 PM 32.7000 -116.9833 180° South 217 250 4,000 -200 Descending Southern California TRACON

Login

Don't have an account? Register now (free) for customized features, flight alerts, and more!